LFLN/SYT METAR and TAF weather

Enter ICAO airport designator
Station Type Date Time Source
LFLN METAR 2020/12/06 02:00 UTC NOAA

LFLN 060200Z AUTO 00000KT 5000 BR NSC M03/M03 Q0998


Station Type Date Time Source
LFLN Decoded METAR 2020/12/06 02:00 UTC NOAA

Saint-Yan, France (LFLN) 46-25N 004-01E 244M
Dec 05, 2020 - 09:00 PM EST / 2020.12.06 0200 UTC
Wind: Calm:0
Visibility: 3 mile(s):0
Weather: mist
Temperature: 26 F (-3 C)
Dew Point: 26 F (-3 C)
Relative Humidity: 100%
Pressure (altimeter): 29.47 in. Hg (0998 hPa)
ob: LFLN 060200Z AUTO 00000KT 5000 BR NSC M03/M03 Q0998
cycle: 2

Station Type Date Time Source
LFLN TAF UTC NOAA

Error!

Example: see airport list